createdAt,value
2023-04-18T00:00:53.850Z,9.30
2023-04-18T00:03:22.075Z,9.30
2023-04-18T00:05:49.993Z,9.30
2023-04-18T00:08:17.422Z,9.30
2023-04-18T00:10:44.495Z,9.30
2023-04-18T00:13:12.193Z,9.30
2023-04-18T00:15:39.590Z,9.30
2023-04-18T00:18:06.976Z,9.30
2023-04-18T00:20:34.189Z,9.40
2023-04-18T00:23:01.868Z,9.30
2023-04-18T00:25:28.930Z,9.30
2023-04-18T00:27:56.214Z,9.30
2023-04-18T00:30:24.731Z,9.30
2023-04-18T00:32:52.140Z,9.30
2023-04-18T00:35:19.927Z,9.30
2023-04-18T00:37:47.257Z,9.30
2023-04-18T00:40:16.952Z,9.30
2023-04-18T00:42:44.405Z,9.30
2023-04-18T00:45:11.606Z,9.20
2023-04-18T00:47:45.365Z,9.30
2023-04-18T00:50:12.992Z,9.20
2023-04-18T00:52:43.606Z,9.30
2023-04-18T00:55:10.966Z,9.60
2023-04-18T00:57:39.066Z,9.40
2023-04-18T01:00:10.437Z,9.30
2023-04-18T01:02:39.798Z,9.30
2023-04-18T01:05:08.077Z,9.30
2023-04-18T01:07:38.053Z,9.30
2023-04-18T01:10:05.758Z,9.20
2023-04-18T01:12:33.116Z,9.20
2023-04-18T01:15:00.809Z,9.20
2023-04-18T01:17:29.580Z,9.10
2023-04-18T01:19:56.997Z,9.10
2023-04-18T01:22:24.337Z,9.10
2023-04-18T01:24:51.447Z,9.10
2023-04-18T01:27:18.833Z,9.20
2023-04-18T01:29:46.021Z,9.10
2023-04-18T01:32:13.533Z,9.10
2023-04-18T01:34:41.279Z,9.00
2023-04-18T01:37:08.662Z,9.10
2023-04-18T01:39:35.864Z,9.00
2023-04-18T01:42:03.303Z,9.00
2023-04-18T01:44:30.393Z,9.00
2023-04-18T01:46:57.778Z,9.00
2023-04-18T01:49:25.220Z,9.00
2023-04-18T01:51:52.514Z,8.90
2023-04-18T01:54:21.745Z,8.90
2023-04-18T01:56:49.063Z,8.90
2023-04-18T01:59:16.830Z,8.90
2023-04-18T02:01:45.327Z,8.90
2023-04-18T02:04:12.577Z,9.50
2023-04-18T02:06:40.269Z,8.90
2023-04-18T02:09:07.333Z,8.90
2023-04-18T02:11:35.231Z,8.90
2023-04-18T02:14:03.568Z,8.90
2023-04-18T02:16:31.389Z,8.90
2023-04-18T02:18:58.582Z,8.90
2023-04-18T02:21:25.922Z,8.90
2023-04-18T02:23:53.018Z,8.90
2023-04-18T02:26:23.051Z,8.90
2023-04-18T02:28:50.286Z,8.90
2023-04-18T02:31:17.965Z,8.90
2023-04-18T02:33:47.890Z,8.90
2023-04-18T02:36:15.601Z,8.90
2023-04-18T02:38:42.903Z,8.90
2023-04-18T02:41:15.027Z,8.90
2023-04-18T02:43:42.305Z,8.90
2023-04-18T02:46:09.802Z,8.80
2023-04-18T02:48:36.920Z,8.80
2023-04-18T02:51:06.915Z,8.80
2023-04-18T02:53:36.942Z,8.80
2023-04-18T02:56:05.140Z,8.80
2023-04-18T02:59:01.435Z,8.80
2023-04-18T03:01:55.071Z,8.70
2023-04-18T03:04:23.276Z,8.70
2023-04-18T03:06:59.314Z,8.70
2023-04-18T03:09:28.406Z,9.00
2023-04-18T03:12:02.309Z,8.70
2023-04-18T03:14:30.943Z,8.70
2023-04-18T03:16:59.908Z,8.70
2023-04-18T03:19:32.108Z,8.70
2023-04-18T03:22:06.160Z,8.70
2023-04-18T03:24:35.176Z,8.70
2023-04-18T03:27:05.664Z,9.40
2023-04-18T03:29:33.524Z,8.70
2023-04-18T03:32:01.643Z,8.70
2023-04-18T03:34:29.436Z,8.70
2023-04-18T03:36:56.998Z,8.90
2023-04-18T03:39:25.192Z,8.70
2023-04-18T03:41:53.940Z,8.70
2023-04-18T03:44:21.201Z,8.60
2023-04-18T03:46:48.975Z,8.80
2023-04-18T03:49:16.123Z,8.70
2023-04-18T03:51:47.829Z,8.70
2023-04-18T03:54:16.339Z,8.70
2023-04-18T03:56:44.602Z,8.70
2023-04-18T03:59:12.549Z,8.70
2023-04-18T04:01:42.172Z,8.80
2023-04-18T04:04:11.932Z,8.80
2023-04-18T04:06:39.777Z,8.70
2023-04-18T04:09:07.204Z,8.80
2023-04-18T04:11:35.141Z,8.80
2023-04-18T04:14:02.893Z,8.80
2023-04-18T04:16:38.131Z,8.80
2023-04-18T04:19:06.358Z,8.80
2023-04-18T04:21:40.175Z,8.80
2023-04-18T04:24:10.933Z,8.90
2023-04-18T04:26:43.142Z,9.00
2023-04-18T04:29:16.366Z,8.90
2023-04-18T04:31:45.946Z,9.00
2023-04-18T04:34:16.925Z,9.00
2023-04-18T04:36:44.721Z,9.00
2023-04-18T04:39:14.845Z,9.00
2023-04-18T04:41:54.370Z,9.10
2023-04-18T04:44:26.138Z,9.20
2023-04-18T04:46:54.948Z,9.20
2023-04-18T04:49:31.407Z,9.70
2023-04-18T04:52:01.368Z,9.50
2023-04-18T04:54:29.616Z,9.30
2023-04-18T04:56:57.286Z,9.30
2023-04-18T04:59:25.950Z,9.40
2023-04-18T05:01:53.444Z,9.40
2023-04-18T05:04:55.122Z,9.50
2023-04-18T05:07:23.704Z,9.60
2023-04-18T05:09:53.210Z,9.60
2023-04-18T05:12:20.602Z,10.00
2023-04-18T05:14:47.796Z,9.70
2023-04-18T05:17:15.116Z,9.70
2023-04-18T05:19:44.094Z,9.70
2023-04-18T05:22:11.510Z,9.80
2023-04-18T05:24:38.607Z,10.20
2023-04-18T05:27:06.230Z,9.90
2023-04-18T05:29:33.383Z,9.90
2023-04-18T05:32:01.773Z,10.00
2023-04-18T05:34:28.951Z,10.00
2023-04-18T05:36:56.707Z,10.00
2023-04-18T05:39:23.831Z,10.10
2023-04-18T05:41:51.316Z,10.30
2023-04-18T05:44:18.562Z,10.20
2023-04-18T05:46:46.814Z,10.30
2023-04-18T05:49:13.941Z,10.50
2023-04-18T05:51:41.509Z,10.40
2023-04-18T05:54:08.681Z,10.50
2023-04-18T05:56:36.619Z,11.20
2023-04-18T05:59:03.709Z,10.50
2023-04-18T06:01:32.578Z,10.60
2023-04-18T06:03:59.806Z,10.60
2023-04-18T06:06:27.718Z,10.70
2023-04-18T06:08:55.025Z,10.80
2023-04-18T06:11:22.707Z,10.90
2023-04-18T06:13:49.777Z,11.00
2023-04-18T06:16:17.296Z,11.00
2023-04-18T06:18:44.499Z,11.10
2023-04-18T06:21:13.196Z,11.20
2023-04-18T06:23:40.376Z,11.30
2023-04-18T06:26:09.271Z,11.40
2023-04-18T06:28:36.408Z,11.50
2023-04-18T06:31:03.787Z,11.60
2023-04-18T06:33:31.122Z,11.70
2023-04-18T06:35:58.675Z,11.80
2023-04-18T06:38:25.751Z,11.80
2023-04-18T06:40:53.302Z,11.90
2023-04-18T06:43:22.082Z,11.90
2023-04-18T06:45:50.126Z,12.00
2023-04-18T06:48:19.883Z,12.10
2023-04-18T06:50:47.359Z,12.20
2023-04-18T06:53:15.047Z,12.30
2023-04-18T06:55:42.379Z,12.50
2023-04-18T06:58:10.151Z,12.50
2023-04-18T07:00:37.445Z,12.60
2023-04-18T07:03:11.427Z,12.70
2023-04-18T07:05:41.833Z,12.80
2023-04-18T07:08:09.013Z,12.80
2023-04-18T07:10:36.376Z,13.10
2023-04-18T07:13:03.466Z,12.90
2023-04-18T07:15:30.930Z,12.90
2023-04-18T07:17:58.243Z,12.90
2023-04-18T07:20:25.646Z,12.90
2023-04-18T07:22:52.860Z,12.90
2023-04-18T07:25:20.466Z,13.00
2023-04-18T07:27:47.923Z,13.00
2023-04-18T07:30:15.592Z,13.10
2023-04-18T07:32:42.757Z,13.20
2023-04-18T07:35:10.529Z,13.20
2023-04-18T07:37:37.684Z,13.30
2023-04-18T07:40:05.750Z,13.30
2023-04-18T07:42:32.821Z,13.40
2023-04-18T07:45:00.297Z,13.40
2023-04-18T07:47:29.963Z,13.50
2023-04-18T07:49:58.292Z,13.50
2023-04-18T07:52:25.345Z,13.60
2023-04-18T07:54:52.701Z,13.70
2023-04-18T07:57:19.729Z,13.80
2023-04-18T07:59:47.163Z,13.70
2023-04-18T08:02:14.223Z,13.80
2023-04-18T08:04:41.823Z,13.80
2023-04-18T08:07:08.948Z,13.90
2023-04-18T08:09:36.331Z,13.90
2023-04-18T08:12:03.640Z,13.90
2023-04-18T08:14:31.041Z,14.00
2023-04-18T08:16:58.070Z,14.00
2023-04-18T08:19:25.572Z,13.90
2023-04-18T08:21:52.667Z,13.90
2023-04-18T08:24:20.065Z,13.90
2023-04-18T08:26:47.318Z,13.90
2023-04-18T08:29:14.857Z,13.90
2023-04-18T08:31:42.052Z,13.90
2023-04-18T08:34:09.477Z,14.00
2023-04-18T08:36:36.634Z,14.10
2023-04-18T08:39:04.498Z,14.00
2023-04-18T08:41:36.972Z,14.10
2023-04-18T08:44:04.463Z,14.10
2023-04-18T08:46:35.882Z,14.10
2023-04-18T08:49:06.331Z,14.10
2023-04-18T08:51:33.920Z,14.20
2023-04-18T08:54:04.332Z,14.10
2023-04-18T08:56:32.007Z,14.10
2023-04-18T08:59:00.406Z,14.10
2023-04-18T09:01:56.561Z,14.10
2023-04-18T09:04:49.089Z,14.10
2023-04-18T09:07:17.482Z,14.10
2023-04-18T09:09:47.715Z,14.20
2023-04-18T09:12:22.865Z,14.20
2023-04-18T09:14:56.672Z,14.30
2023-04-18T09:17:45.495Z,14.40
2023-04-18T09:20:15.695Z,14.40
2023-04-18T09:22:50.490Z,14.60
2023-04-18T09:25:40.134Z,14.70
2023-04-18T09:28:41.889Z,14.80
2023-04-18T09:31:15.523Z,15.00
2023-04-18T09:33:54.458Z,15.00
2023-04-18T09:36:31.263Z,14.90
2023-04-18T09:38:58.561Z,14.90
2023-04-18T09:41:26.225Z,15.00
2023-04-18T09:44:14.490Z,15.10
2023-04-18T09:46:46.165Z,15.20
2023-04-18T09:49:15.098Z,15.40
2023-04-18T09:51:44.386Z,15.60
2023-04-18T09:54:16.046Z,15.80
2023-04-18T09:56:50.685Z,15.90
2023-04-18T09:59:26.770Z,16.00
2023-04-18T10:01:55.991Z,16.20
2023-04-18T10:04:23.305Z,16.20
2023-04-18T10:06:50.833Z,16.40
2023-04-18T10:09:18.543Z,16.50
2023-04-18T10:11:46.364Z,16.50
2023-04-18T10:14:16.264Z,16.70
2023-04-18T10:16:45.702Z,16.90
2023-04-18T10:19:26.274Z,17.00
2023-04-18T10:21:55.928Z,17.20
2023-04-18T10:24:48.269Z,17.40
2023-04-18T10:27:17.142Z,17.50
2023-04-18T10:29:52.333Z,17.60
2023-04-18T10:32:23.550Z,17.90
2023-04-18T10:34:53.402Z,18.30
2023-04-18T10:37:20.866Z,18.70
2023-04-18T10:39:53.990Z,19.00
2023-04-18T10:42:47.277Z,19.20
2023-04-18T10:45:22.278Z,19.30
2023-04-18T10:47:50.622Z,19.30
2023-04-18T10:50:17.824Z,19.20
2023-04-18T10:52:45.294Z,19.20
2023-04-18T10:55:26.163Z,19.10
2023-04-18T10:57:56.512Z,19.00
2023-04-18T11:00:24.058Z,18.90
2023-04-18T11:02:53.885Z,18.80
2023-04-18T11:05:24.107Z,18.80
2023-04-18T11:07:51.826Z,18.70
2023-04-18T11:10:28.112Z,18.70
2023-04-18T11:12:56.517Z,18.70
2023-04-18T11:15:25.393Z,18.70
2023-04-18T11:18:10.958Z,18.70
2023-04-18T11:20:40.112Z,18.80
2023-04-18T11:23:17.861Z,18.90
2023-04-18T11:25:45.692Z,19.10
2023-04-18T11:28:13.661Z,19.10
2023-04-18T11:30:42.186Z,19.10
2023-04-18T11:33:13.806Z,19.10
2023-04-18T11:35:45.387Z,19.20
2023-04-18T11:38:15.065Z,19.40
2023-04-18T11:40:49.403Z,19.50
2023-04-18T11:43:25.125Z,19.50
2023-04-18T11:45:57.268Z,19.50
2023-04-18T11:48:37.491Z,19.40
2023-04-18T11:51:06.634Z,19.10
2023-04-18T11:53:38.798Z,19.00
2023-04-18T11:56:06.466Z,19.00
2023-04-18T11:58:35.112Z,19.10
2023-04-18T12:01:19.091Z,19.20
2023-04-18T12:04:06.988Z,19.20
2023-04-18T12:06:49.683Z,19.20
2023-04-18T12:09:17.988Z,19.40
2023-04-18T12:11:56.313Z,19.60
2023-04-18T12:14:24.011Z,19.60
2023-04-18T12:16:51.794Z,19.30
2023-04-18T12:19:20.817Z,19.20
2023-04-18T12:22:02.096Z,19.30
2023-04-18T12:24:29.795Z,19.30
2023-04-18T12:26:57.983Z,19.30
2023-04-18T12:29:25.921Z,19.30
2023-04-18T12:31:53.299Z,19.50
2023-04-18T12:34:21.131Z,19.70
2023-04-18T12:36:48.173Z,19.80
2023-04-18T12:39:15.521Z,19.90
2023-04-18T12:41:43.784Z,20.10
2023-04-18T12:44:11.185Z,20.20
2023-04-18T12:46:38.625Z,20.40
2023-04-18T12:49:06.046Z,20.60
2023-04-18T12:51:33.067Z,20.60
2023-04-18T12:54:00.584Z,20.70
2023-04-18T12:56:27.796Z,21.00
2023-04-18T12:58:55.299Z,21.30
2023-04-18T13:01:22.386Z,21.50
2023-04-18T13:03:59.965Z,21.50
2023-04-18T13:06:49.919Z,21.30
2023-04-18T13:09:17.536Z,21.20
2023-04-18T13:11:44.554Z,21.00
2023-04-18T13:14:12.035Z,20.80
2023-04-18T13:16:40.088Z,20.50
2023-04-18T13:19:08.667Z,20.10
2023-04-18T13:21:35.655Z,19.80
2023-04-18T13:24:03.067Z,19.60
2023-04-18T13:26:30.384Z,19.50
2023-04-18T13:28:57.770Z,19.40
2023-04-18T13:31:25.303Z,19.40
2023-04-18T13:33:52.647Z,19.40
2023-04-18T13:36:19.757Z,19.60
2023-04-18T13:38:47.637Z,20.00
2023-04-18T13:41:42.876Z,20.50
2023-04-18T13:44:10.334Z,21.00
2023-04-18T13:46:37.382Z,21.10
2023-04-18T13:49:04.998Z,20.80
2023-04-18T13:51:33.426Z,20.60
2023-04-18T13:54:01.167Z,20.50
2023-04-18T13:56:28.311Z,20.70
2023-04-18T13:58:56.016Z,21.10
2023-04-18T14:01:23.253Z,21.50
2023-04-18T14:03:51.057Z,21.90
2023-04-18T14:06:18.169Z,21.90
2023-04-18T14:08:45.572Z,22.00
2023-04-18T14:11:13.203Z,22.00
2023-04-18T14:13:40.542Z,21.80
2023-04-18T14:18:53.967Z,21.50
2023-04-18T14:21:21.214Z,21.20
2023-04-18T14:23:48.635Z,20.90
2023-04-18T14:26:15.684Z,20.40
2023-04-18T14:28:43.164Z,19.90
2023-04-18T14:31:10.501Z,19.40
2023-04-18T14:33:38.469Z,18.90
2023-04-18T14:36:06.054Z,18.50
2023-04-18T14:38:33.451Z,18.20
2023-04-18T14:41:01.084Z,17.90
2023-04-18T14:43:28.504Z,17.70
2023-04-18T14:45:56.006Z,17.60
2023-04-18T14:48:24.128Z,17.50
2023-04-18T14:50:58.845Z,17.30
2023-04-18T14:53:27.093Z,17.30
2023-04-18T14:55:54.268Z,17.20
2023-04-18T14:58:21.688Z,17.20
2023-04-18T15:00:49.235Z,17.20
2023-04-18T15:03:16.911Z,17.20
2023-04-18T15:05:46.518Z,17.20
2023-04-18T15:08:14.942Z,17.30
2023-04-18T15:10:42.649Z,17.20
2023-04-18T15:13:11.172Z,17.20
2023-04-18T15:15:39.769Z,17.10
2023-04-18T15:18:08.546Z,17.00
2023-04-18T15:20:37.159Z,17.00
2023-04-18T15:23:04.745Z,17.00
2023-04-18T15:25:31.937Z,16.90
2023-04-18T15:27:59.336Z,17.00
2023-04-18T15:30:26.431Z,16.90
2023-04-18T15:32:54.067Z,16.90
2023-04-18T15:35:21.229Z,16.90
2023-04-18T15:37:49.276Z,16.90
2023-04-18T15:40:16.541Z,16.90
2023-04-18T15:42:44.672Z,16.90
2023-04-18T15:45:12.166Z,16.90
2023-04-18T15:47:40.692Z,16.90
2023-04-18T15:50:09.247Z,16.90
2023-04-18T15:52:36.717Z,16.90
2023-04-18T15:55:05.314Z,16.80
2023-04-18T15:57:32.447Z,16.70
2023-04-18T15:59:59.899Z,16.60
2023-04-18T16:02:27.211Z,16.50
2023-04-18T16:04:54.694Z,16.40
2023-04-18T16:07:21.849Z,16.30
2023-04-18T16:09:49.176Z,16.20
2023-04-18T16:12:16.305Z,16.10
2023-04-18T16:14:43.704Z,16.00
2023-04-18T16:17:11.156Z,16.00
2023-04-18T16:19:39.005Z,15.90
2023-04-18T16:22:07.260Z,15.90
2023-04-18T16:24:34.633Z,15.80
2023-04-18T16:27:01.692Z,15.70
2023-04-18T16:29:29.155Z,15.70
2023-04-18T16:31:56.456Z,15.70
2023-04-18T16:34:23.975Z,15.60
2023-04-18T16:36:51.340Z,15.50
2023-04-18T16:39:19.300Z,15.50
2023-04-18T16:41:46.568Z,15.40
2023-04-18T16:44:14.069Z,15.40
2023-04-18T16:46:41.640Z,15.40
2023-04-18T16:49:08.978Z,15.30
2023-04-18T16:51:37.318Z,15.30
2023-04-18T16:54:05.972Z,15.20
2023-04-18T16:56:34.109Z,15.10
2023-04-18T16:59:01.414Z,15.20
2023-04-18T17:01:28.987Z,15.10
2023-04-18T17:03:57.840Z,15.10
2023-04-18T17:06:25.100Z,15.00
2023-04-18T17:08:53.537Z,14.90
2023-04-18T17:11:21.188Z,14.90
2023-04-18T17:13:51.039Z,14.90
2023-04-18T17:16:18.328Z,14.90
2023-04-18T17:18:45.656Z,14.80
2023-04-18T17:21:12.852Z,14.70
2023-04-18T17:23:42.392Z,14.70
2023-04-18T17:26:10.213Z,14.70
2023-04-18T17:28:37.678Z,14.60
2023-04-18T17:31:05.087Z,14.60
2023-04-18T17:33:32.741Z,14.50
2023-04-18T17:35:59.939Z,14.40
2023-04-18T17:38:27.245Z,14.40
2023-04-18T17:41:01.956Z,14.30
2023-04-18T17:43:29.602Z,14.20
2023-04-18T17:45:59.881Z,14.10
2023-04-18T17:48:27.331Z,14.00
2023-04-18T17:50:54.370Z,13.90
2023-04-18T17:53:22.319Z,13.90
2023-04-18T17:55:52.091Z,13.80
2023-04-18T17:58:20.069Z,13.90
2023-04-18T18:00:47.566Z,13.70
2023-04-18T18:03:16.049Z,13.60
2023-04-18T18:05:46.342Z,13.50
2023-04-18T18:08:13.778Z,13.50
2023-04-18T18:10:41.116Z,13.50
2023-04-18T18:13:08.592Z,13.40
2023-04-18T18:15:35.778Z,13.40
2023-04-18T18:18:03.372Z,13.30
2023-04-18T18:20:30.890Z,13.30
2023-04-18T18:22:59.848Z,13.20
2023-04-18T18:25:27.760Z,13.20
2023-04-18T18:27:55.433Z,13.20
2023-04-18T18:30:22.651Z,13.20
2023-04-18T18:32:50.173Z,13.20
2023-04-18T18:35:17.742Z,13.10
2023-04-18T18:37:45.427Z,13.20
2023-04-18T18:40:12.808Z,13.20
2023-04-18T18:42:40.280Z,13.10
2023-04-18T18:45:08.118Z,13.10
2023-04-18T18:47:37.467Z,13.10
2023-04-18T18:50:06.495Z,13.00
2023-04-18T18:52:34.186Z,13.00
2023-04-18T18:55:01.620Z,13.00
2023-04-18T18:57:29.178Z,13.00
2023-04-18T18:59:58.443Z,13.00
2023-04-18T19:02:26.368Z,13.00
2023-04-18T19:04:53.908Z,12.90
2023-04-18T19:07:21.410Z,12.90
2023-04-18T19:09:49.455Z,12.80
2023-04-18T19:12:16.877Z,12.70
2023-04-18T19:14:44.773Z,12.70
2023-04-18T19:17:12.092Z,12.60
2023-04-18T19:19:39.200Z,12.70
2023-04-18T19:22:06.773Z,12.60
2023-04-18T19:24:34.896Z,12.60
2023-04-18T19:27:02.963Z,12.60
2023-04-18T19:29:32.388Z,12.70
2023-04-18T19:32:00.250Z,12.50
2023-04-18T19:34:27.310Z,12.80
2023-04-18T19:36:54.561Z,12.50
2023-04-18T19:39:21.552Z,12.50
2023-04-18T19:41:48.946Z,12.40
2023-04-18T19:44:16.268Z,12.40
2023-04-18T19:46:43.701Z,12.40
2023-04-18T19:49:10.733Z,12.40
2023-04-18T19:51:39.139Z,12.40
2023-04-18T19:54:06.405Z,12.30
2023-04-18T19:56:33.702Z,12.30
2023-04-18T19:59:00.815Z,12.60
2023-04-18T20:01:28.337Z,12.20
2023-04-18T20:03:58.504Z,12.10
2023-04-18T20:06:26.841Z,12.30
2023-04-18T20:08:54.637Z,12.10
2023-04-18T20:11:22.259Z,12.00
2023-04-18T20:13:49.792Z,11.90
2023-04-18T20:16:17.390Z,11.90
2023-04-18T20:18:47.271Z,11.80
2023-04-18T20:21:14.912Z,11.70
2023-04-18T20:23:42.738Z,11.60
2023-04-18T20:26:10.219Z,11.60
2023-04-18T20:28:37.947Z,11.50
2023-04-18T20:31:05.616Z,11.40
2023-04-18T20:33:33.110Z,11.40
2023-04-18T20:36:00.564Z,11.30
2023-04-18T20:38:29.697Z,11.30
2023-04-18T20:41:00.822Z,11.30
2023-04-18T20:43:28.058Z,11.30
2023-04-18T20:45:57.817Z,11.20
2023-04-18T20:48:25.148Z,11.20
2023-04-18T20:50:52.663Z,11.20
2023-04-18T20:53:21.330Z,11.10
2023-04-18T20:55:49.141Z,11.00
2023-04-18T20:58:16.831Z,10.90
2023-04-18T21:00:44.899Z,10.80
2023-04-18T21:03:16.251Z,10.70
2023-04-18T21:05:44.997Z,10.60
2023-04-18T21:08:12.233Z,10.50
2023-04-18T21:10:39.914Z,10.40
2023-04-18T21:13:07.219Z,10.30
2023-04-18T21:15:35.772Z,10.30
2023-04-18T21:18:02.940Z,11.30
2023-04-18T21:20:30.482Z,10.30
2023-04-18T21:22:57.688Z,10.30
2023-04-18T21:25:24.968Z,10.20
2023-04-18T21:27:52.029Z,10.30
2023-04-18T21:30:19.593Z,10.30
2023-04-18T21:32:49.115Z,10.30
2023-04-18T21:35:19.839Z,10.60
2023-04-18T21:37:48.584Z,10.20
2023-04-18T21:40:16.125Z,10.20
2023-04-18T21:42:43.313Z,10.20
2023-04-18T21:45:11.130Z,10.20
2023-04-18T21:47:38.564Z,10.20
2023-04-18T21:50:06.557Z,10.40
2023-04-18T21:52:33.595Z,10.20
2023-04-18T21:55:01.072Z,10.10
2023-04-18T21:57:28.164Z,10.10
2023-04-18T21:59:57.747Z,10.00
2023-04-18T22:02:25.910Z,10.60
2023-04-18T22:04:53.472Z,9.80
2023-04-18T22:07:20.590Z,9.70
2023-04-18T22:09:47.876Z,9.60
2023-04-18T22:12:15.785Z,9.50
2023-04-18T22:14:48.184Z,9.50
2023-04-18T22:17:15.280Z,9.40
2023-04-18T22:19:44.314Z,9.30
2023-04-18T22:22:11.589Z,9.30
2023-04-18T22:24:38.996Z,9.20
2023-04-18T22:27:06.007Z,9.20
2023-04-18T22:29:33.442Z,9.10
2023-04-18T22:32:00.631Z,9.00
2023-04-18T22:34:29.257Z,8.90
2023-04-18T22:36:56.308Z,8.80
2023-04-18T22:39:25.837Z,8.70
2023-04-18T22:41:52.948Z,8.70
2023-04-18T22:44:20.414Z,8.60
2023-04-18T22:46:48.249Z,8.60
2023-04-18T22:49:15.657Z,8.60
2023-04-18T22:51:43.928Z,8.60
2023-04-18T22:54:11.443Z,8.50
2023-04-18T22:56:38.477Z,8.50
2023-04-18T22:59:05.864Z,8.50
2023-04-18T23:01:33.055Z,8.40
2023-04-18T23:04:00.668Z,8.50
2023-04-18T23:06:28.364Z,8.90
2023-04-18T23:08:55.992Z,9.50
2023-04-18T23:11:23.115Z,8.90
2023-04-18T23:13:50.869Z,8.40
2023-04-18T23:16:17.933Z,8.40
2023-04-18T23:18:45.270Z,8.50
2023-04-18T23:21:12.555Z,9.00
2023-04-18T23:23:39.831Z,9.00
2023-04-18T23:26:14.311Z,8.30
2023-04-18T23:28:42.423Z,8.30
2023-04-18T23:31:09.985Z,8.30
2023-04-18T23:33:37.497Z,8.30
2023-04-18T23:36:04.648Z,8.20
2023-04-18T23:38:32.388Z,8.30
2023-04-18T23:40:59.415Z,8.30
2023-04-18T23:43:26.746Z,8.80
2023-04-18T23:45:53.929Z,8.20
2023-04-18T23:48:21.190Z,8.30
2023-04-18T23:50:54.544Z,8.20
2023-04-18T23:53:22.475Z,8.20
2023-04-18T23:55:51.055Z,8.10
2023-04-18T23:58:18.515Z,8.10
